Time;durP1;ratioP1;P1;durP2;ratioP2;P2;SDS_P1;SDS_P2;PMS_P1;PMS_P2;Temp;Humidity;BMP_temperature;BMP_pressure;BME280_temperature;BME280_humidity;BME280_pressure;Samples;Min_cycle;Max_cycle;Signal;HPM_P1;HPM_P2
2021/06/27 00:00:18;;;;;;;15.87;14.47;;;18.40;99.90;;;;;;5045855;28;20276;-70
2021/06/27 00:02:44;;;;;;;14.50;13.20;;;18.30;99.90;;;;;;5034529;28;20466;-70
2021/06/27 00:05:12;;;;;;;15.17;13.87;;;18.30;99.90;;;;;;5033904;28;20399;-70
2021/06/27 00:07:38;;;;;;;14.57;13.37;;;18.30;99.90;;;;;;5033864;28;20153;-70
2021/06/27 00:10:10;;;;;;;14.37;13.10;;;18.30;99.90;;;;;;5033866;28;20392;-70
2021/06/27 00:12:35;;;;;;;15.30;13.80;;;18.30;99.90;;;;;;5033769;28;20408;-70
2021/06/27 00:15:02;;;;;;;15.60;14.00;;;18.20;99.90;;;;;;5033574;28;20403;-70
2021/06/27 00:17:27;;;;;;;15.80;14.40;;;18.20;99.90;;;;;;5033859;28;20167;-70
2021/06/27 00:19:53;;;;;;;15.43;13.87;;;18.20;99.90;;;;;;5034407;28;20423;-70
2021/06/27 00:22:18;;;;;;;17.10;15.30;;;18.20;99.90;;;;;;5033683;28;20184;-70
2021/06/27 00:24:44;;;;;;;16.90;15.40;;;18.10;99.90;;;;;;5032785;28;20203;-70
2021/06/27 00:27:10;;;;;;;16.37;14.77;;;18.10;99.90;;;;;;5033696;28;20161;-70
2021/06/27 00:29:35;;;;;;;17.23;15.73;;;18.10;99.90;;;;;;5033476;28;20168;-70
2021/06/27 00:32:01;;;;;;;18.17;16.27;;;18.00;99.90;;;;;;5033676;28;20184;-70
2021/06/27 00:34:27;;;;;;;17.53;15.73;;;18.00;99.90;;;;;;5033406;28;20497;-70
2021/06/27 00:36:52;;;;;;;17.03;15.27;;;18.00;99.90;;;;;;5034198;28;20275;-70
2021/06/27 00:39:18;;;;;;;16.47;14.87;;;18.00;99.90;;;;;;5033394;28;20222;-70
2021/06/27 00:41:43;;;;;;;14.70;13.30;;;17.90;99.90;;;;;;5040800;28;20617;-70
2021/06/27 00:44:09;;;;;;;14.93;13.63;;;17.90;99.90;;;;;;5053352;28;20152;-70
2021/06/27 00:46:34;;;;;;;16.30;14.70;;;17.80;99.90;;;;;;5052908;28;20175;-70
2021/06/27 00:49:00;;;;;;;16.13;14.63;;;17.80;99.90;;;;;;5053094;28;20157;-70
2021/06/27 00:51:25;;;;;;;16.13;14.63;;;17.80;99.90;;;;;;5052981;28;20152;-70
2021/06/27 00:53:52;;;;;;;16.27;14.73;;;17.80;99.90;;;;;;5052414;28;20648;-70
2021/06/27 00:56:18;;;;;;;16.13;14.53;;;17.70;99.90;;;;;;5053231;28;20337;-70
2021/06/27 00:58:44;;;;;;;16.77;15.10;;;17.70;99.90;;;;;;5052942;28;20440;-70
2021/06/27 01:01:10;;;;;;;15.87;14.40;;;17.70;99.90;;;;;;5037283;28;20632;-70
2021/06/27 01:03:36;;;;;;;15.30;13.80;;;17.70;99.90;;;;;;5033246;28;20443;-70
2021/06/27 01:06:03;;;;;;;16.20;14.50;;;17.70;99.90;;;;;;5032839;28;20184;-70
2021/06/27 01:08:29;;;;;;;16.13;14.53;;;17.60;99.90;;;;;;5033373;28;20392;-70
2021/06/27 01:10:55;;;;;;;16.00;14.40;;;17.60;99.90;;;;;;5033159;28;20970;-70
2021/06/27 01:13:22;;;;;;;14.90;13.60;;;17.60;99.90;;;;;;5032663;28;20403;-70
2021/06/27 01:15:49;;;;;;;14.87;13.50;;;17.60;99.90;;;;;;5032517;28;20396;-70
2021/06/27 01:18:15;;;;;;;14.93;13.63;;;17.60;99.90;;;;;;5032664;28;20391;-70
2021/06/27 01:20:42;;;;;;;15.23;13.87;;;17.50;99.90;;;;;;5032536;28;20400;-70
2021/06/27 01:23:13;;;;;;;12.93;11.83;;;17.50;99.90;;;;;;5032763;28;20526;-70
2021/06/27 01:25:42;;;;;;;14.50;13.20;;;17.50;99.90;;;;;;5032529;28;20434;-70
2021/06/27 01:28:09;;;;;;;15.10;13.70;;;17.50;99.90;;;;;;5033123;28;20416;-70
2021/06/27 01:30:35;;;;;;;15.23;13.03;;;17.50;99.90;;;;;;5032427;28;20388;-70
2021/06/27 01:33:05;;;;;;;15.67;14.27;;;17.50;99.90;;;;;;5032291;28;20399;-70
2021/06/27 01:35:31;;;;;;;13.83;12.30;;;17.40;99.90;;;;;;5032228;28;20185;-70
2021/06/27 01:37:58;;;;;;;14.20;12.80;;;17.40;99.90;;;;;;5032773;28;20450;-70
2021/06/27 01:40:27;;;;;;;13.87;12.40;;;17.40;99.90;;;;;;5032524;28;20448;-70
2021/06/27 01:43:05;;;;;;;16.80;15.30;;;17.40;99.90;;;;;;5049275;28;20465;-70
2021/06/27 01:45:31;;;;;;;13.80;12.60;;;17.40;99.90;;;;;;5047885;28;20417;-70
2021/06/27 01:47:59;;;;;;;16.20;14.40;;;17.30;99.90;;;;;;5052049;28;20627;-70
2021/06/27 01:50:26;;;;;;;16.13;14.67;;;17.30;99.90;;;;;;5051865;28;20576;-70
2021/06/27 01:52:52;;;;;;;14.83;13.20;;;17.30;99.90;;;;;;5052170;28;20394;-70
2021/06/27 01:55:18;;;;;;;15.53;13.87;;;17.30;99.90;;;;;;5052023;28;20401;-70
2021/06/27 01:57:44;;;;;;;15.03;13.73;;;17.30;99.90;;;;;;5051968;28;20790;-70
2021/06/27 02:00:10;;;;;;;14.23;12.83;;;17.20;99.90;;;;;;5051830;28;20192;-70
2021/06/27 02:02:36;;;;;;;14.53;13.00;;;17.20;99.90;;;;;;5050910;28;20260;-70
2021/06/27 02:05:04;;;;;;;14.30;13.00;;;17.20;99.90;;;;;;5052176;28;20398;-70
2021/06/27 02:07:29;;;;;;;15.67;13.83;;;17.20;99.90;;;;;;5052160;28;20888;-70
2021/06/27 02:09:55;;;;;;;15.50;12.90;;;17.20;99.90;;;;;;5052393;28;20390;-69
2021/06/27 02:12:21;;;;;;;13.10;11.97;;;17.20;99.90;;;;;;5052040;28;20176;-69
2021/06/27 02:14:46;;;;;;;13.00;11.80;;;17.10;99.90;;;;;;5051724;28;20187;-69
2021/06/27 02:17:12;;;;;;;14.67;13.27;;;17.10;99.90;;;;;;5051721;28;20162;-69
2021/06/27 02:19:38;;;;;;;14.13;12.87;;;17.10;99.90;;;;;;5051393;28;20195;-73
2021/06/27 02:22:04;;;;;;;13.80;12.57;;;17.00;99.90;;;;;;5051905;28;20187;-73
2021/06/27 02:24:32;;;;;;;14.43;13.13;;;17.00;99.90;;;;;;5051850;28;20398;-73
2021/06/27 02:26:58;;;;;;;13.20;12.10;;;17.00;99.90;;;;;;5051717;28;20399;-73
2021/06/27 02:29:24;;;;;;;12.67;11.53;;;17.00;99.90;;;;;;5051564;28;20536;-73
2021/06/27 02:31:50;;;;;;;15.07;13.10;;;17.00;99.90;;;;;;5051840;28;20470;-73
2021/06/27 02:34:18;;;;;;;13.70;12.40;;;17.00;99.90;;;;;;5051636;28;20209;-73
2021/06/27 02:36:44;;;;;;;13.70;12.50;;;17.00;99.90;;;;;;5051043;28;20839;-73
2021/06/27 02:39:10;;;;;;;14.13;12.83;;;16.90;99.90;;;;;;5051746;28;20398;-73
2021/06/27 02:41:36;;;;;;;15.50;14.00;;;16.90;99.90;;;;;;5051373;28;20191;-73
2021/06/27 02:44:04;;;;;;;14.10;12.70;;;16.90;99.90;;;;;;5051718;28;20406;-73
2021/06/27 02:46:30;;;;;;;13.73;12.43;;;16.80;99.90;;;;;;5051233;28;20180;-73
2021/06/27 02:48:56;;;;;;;14.73;13.33;;;16.80;99.90;;;;;;5053910;28;20937;-72
2021/06/27 02:51:21;;;;;;;13.90;12.60;;;16.80;99.90;;;;;;5055668;28;20170;-73
2021/06/27 02:53:47;;;;;;;14.57;11.67;;;16.80;99.90;;;;;;5054539;28;20756;-72
2021/06/27 02:56:13;;;;;;;13.53;12.43;;;16.80;99.90;;;;;;5055205;28;20520;-72
2021/06/27 03:01:17;;;;;;;13.30;12.10;;;16.70;99.90;;;;;;5069293;28;20543;-73
2021/06/27 03:03:45;;;;;;;13.97;12.77;;;16.70;99.90;;;;;;5069619;28;20390;-73
2021/06/27 03:06:12;;;;;;;14.17;12.70;;;16.70;99.90;;;;;;5069845;28;20386;-74
2021/06/27 03:08:38;;;;;;;12.03;10.97;;;16.70;99.90;;;;;;5069524;28;20953;-74
2021/06/27 03:11:05;;;;;;;12.43;11.33;;;16.70;99.90;;;;;;5053823;28;20528;-74
2021/06/27 03:13:34;;;;;;;14.40;13.10;;;16.70;99.90;;;;;;5049490;28;20221;-74
2021/06/27 03:15:59;;;;;;;12.83;11.73;;;16.60;99.90;;;;;;5049293;28;20398;-73
2021/06/27 03:18:25;;;;;;;13.77;12.50;;;16.60;99.90;;;;;;5049287;28;20879;-73
2021/06/27 03:20:50;;;;;;;14.30;12.90;;;16.60;99.90;;;;;;5049387;28;20192;-74
2021/06/27 03:23:16;;;;;;;14.97;13.30;;;16.50;99.90;;;;;;5049084;28;20214;-74
2021/06/27 03:25:42;;;;;;;12.43;11.33;;;16.50;99.90;;;;;;5049046;28;20186;-74
2021/06/27 03:28:08;;;;;;;13.53;12.30;;;16.50;99.90;;;;;;5048236;28;20253;-74
2021/06/27 03:30:34;;;;;;;14.00;12.57;;;16.50;99.90;;;;;;5048814;28;20403;-73
2021/06/27 03:33:00;;;;;;;12.33;11.13;;;16.50;99.90;;;;;;5048939;28;20172;-73
2021/06/27 03:35:26;;;;;;;13.80;12.50;;;16.50;99.90;;;;;;5049348;28;20762;-73
2021/06/27 03:37:59;;;;;;;13.67;12.27;;;16.40;99.90;;;;;;5048804;28;20169;-73
2021/06/27 03:40:24;;;;;;;14.13;12.70;;;16.40;99.90;;;;;;5048689;28;20453;-74
2021/06/27 03:42:51;;;;;;;13.30;12.10;;;16.40;99.90;;;;;;5048902;28;20898;-73
2021/06/27 03:45:17;;;;;;;14.00;12.57;;;16.50;99.90;;;;;;5036423;28;20226;-73
2021/06/27 03:47:43;;;;;;;13.50;12.30;;;16.40;99.90;;;;;;5048662;28;20811;-73
2021/06/27 03:50:10;;;;;;;13.47;12.17;;;16.40;99.90;;;;;;5048780;28;20480;-73
2021/06/27 03:52:36;;;;;;;12.80;11.70;;;16.40;99.90;;;;;;5048554;28;20399;-73
2021/06/27 03:55:02;;;;;;;14.27;12.93;;;16.50;99.90;;;;;;5048773;28;20431;-73
2021/06/27 03:57:28;;;;;;;14.90;13.50;;;16.50;99.90;;;;;;5048461;28;20169;-73
2021/06/27 03:59:53;;;;;;;15.23;13.80;;;16.50;99.90;;;;;;5033583;28;20890;-73
2021/06/27 04:02:19;;;;;;;13.33;11.97;;;16.50;99.90;;;;;;5028590;28;20180;-73
2021/06/27 04:04:44;;;;;;;14.20;12.90;;;16.60;99.90;;;;;;5029086;28;20161;-73
2021/06/27 04:07:10;;;;;;;12.97;11.50;;;16.60;99.90;;;;;;5028438;28;20161;-73
2021/06/27 04:09:35;;;;;;;13.07;11.97;;;16.60;99.90;;;;;;5028475;28;20164;-73
2021/06/27 04:12:01;;;;;;;12.77;11.70;;;16.70;99.90;;;;;;5018343;28;20776;-73
2021/06/27 04:14:26;;;;;;;13.83;12.63;;;16.70;99.90;;;;;;5016566;28;20173;-73
2021/06/27 04:16:52;;;;;;;14.03;12.63;;;16.80;99.90;;;;;;5015451;28;20170;-73
2021/06/27 04:19:18;;;;;;;12.20;10.90;;;16.80;99.90;;;;;;5015172;28;20200;-73
2021/06/27 04:21:43;;;;;;;13.37;12.00;;;16.90;99.90;;;;;;5014973;28;20158;-73
2021/06/27 04:24:09;;;;;;;14.13;12.93;;;16.90;99.90;;;;;;5014832;28;20164;-73
2021/06/27 04:26:34;;;;;;;19.20;12.70;;;17.00;99.90;;;;;;5014919;28;20167;-73
2021/06/27 04:29:00;;;;;;;13.00;11.80;;;17.00;99.90;;;;;;5014954;28;20150;-73
2021/06/27 04:31:25;;;;;;;13.37;12.17;;;17.10;99.90;;;;;;5015232;28;20169;-73
2021/06/27 04:33:51;;;;;;;13.63;12.33;;;17.10;99.90;;;;;;5014959;28;20697;-73
2021/06/27 04:36:18;;;;;;;13.90;12.40;;;17.10;99.90;;;;;;5014627;28;20461;-73
2021/06/27 04:38:44;;;;;;;13.90;11.87;;;17.10;99.90;;;;;;5014844;28;20150;-73
2021/06/27 04:41:10;;;;;;;12.80;11.70;;;17.20;99.90;;;;;;5014468;28;20537;-73
2021/06/27 04:43:35;;;;;;;12.40;11.30;;;17.20;99.90;;;;;;5015111;28;20157;-73
2021/06/27 04:46:01;;;;;;;14.67;13.37;;;17.10;99.90;;;;;;5014534;28;20583;-73
2021/06/27 04:48:26;;;;;;;12.30;11.20;;;17.20;99.90;;;;;;5014829;28;20583;-73
2021/06/27 04:50:52;;;;;;;13.50;12.20;;;17.20;99.90;;;;;;5014511;28;20161;-73
2021/06/27 04:53:18;;;;;;;12.87;11.77;;;17.20;99.90;;;;;;5014249;28;20185;-73
2021/06/27 04:55:44;;;;;;;13.77;12.50;;;17.30;99.90;;;;;;5014399;28;20166;-73
2021/06/27 04:58:10;;;;;;;20.23;11.83;;;17.30;99.90;;;;;;5014426;28;20173;-73
2021/06/27 05:00:37;;;;;;;13.47;12.20;;;17.30;99.90;;;;;;5014355;28;20821;-73
2021/06/27 05:03:02;;;;;;;14.47;13.10;;;17.30;99.90;;;;;;5014571;28;20411;-73
2021/06/27 05:05:28;;;;;;;13.03;11.90;;;17.40;99.90;;;;;;5014131;28;20766;-73
2021/06/27 05:07:54;;;;;;;15.33;14.03;;;17.40;99.90;;;;;;5014164;28;20197;-73
2021/06/27 05:10:20;;;;;;;12.70;11.70;;;17.50;99.90;;;;;;5013972;28;20416;-73
2021/06/27 05:12:45;;;;;;;13.20;11.90;;;17.60;99.90;;;;;;5014403;28;20248;-73
2021/06/27 05:15:11;;;;;;;11.97;10.70;;;17.60;99.90;;;;;;5014728;28;20189;-74
2021/06/27 05:17:37;;;;;;;12.97;11.73;;;17.70;99.90;;;;;;5014039;28;20154;-73
2021/06/27 05:20:04;;;;;;;13.13;11.93;;;17.80;99.90;;;;;;5013993;28;20774;-73
2021/06/27 05:22:29;;;;;;;12.20;11.10;;;17.90;99.90;;;;;;5013388;28;20192;-73
2021/06/27 05:24:55;;;;;;;12.13;11.00;;;18.00;99.90;;;;;;5014371;28;20874;-73
2021/06/27 05:27:21;;;;;;;13.30;12.07;;;18.00;99.90;;;;;;5013854;28;20187;-73
2021/06/27 05:29:46;;;;;;;12.80;11.47;;;18.10;99.90;;;;;;5014216;28;20531;-73
2021/06/27 05:32:12;;;;;;;12.60;11.50;;;18.20;99.90;;;;;;5013704;28;20172;-73
2021/06/27 05:34:37;;;;;;;12.67;11.50;;;18.30;99.90;;;;;;5013622;28;20223;-73
2021/06/27 05:37:03;;;;;;;13.17;12.07;;;18.30;99.90;;;;;;5013730;28;20169;-73
2021/06/27 05:39:29;;;;;;;11.67;10.67;;;18.40;99.90;;;;;;5013663;28;20250;-73
2021/06/27 05:41:55;;;;;;;12.43;11.33;;;18.40;99.90;;;;;;5013599;28;20166;-73
2021/06/27 05:44:20;;;;;;;11.80;10.80;;;18.50;99.90;;;;;;5013829;28;20184;-73
2021/06/27 05:46:47;;;;;;;11.40;10.47;;;18.50;99.90;;;;;;5013406;28;20173;-73
2021/06/27 05:49:12;;;;;;;12.33;11.10;;;18.60;99.90;;;;;;5013487;28;20162;-73
2021/06/27 05:51:40;;;;;;;10.60;9.70;;;18.60;99.90;;;;;;5013260;28;20404;-73
2021/06/27 05:54:07;;;;;;;11.80;10.70;;;18.70;99.90;;;;;;5013529;28;20212;-73
2021/06/27 05:56:32;;;;;;;11.10;10.00;;;18.70;99.90;;;;;;5013501;28;20451;-73
2021/06/27 05:58:58;;;;;;;11.40;10.20;;;18.80;99.90;;;;;;5013563;28;21023;-72
2021/06/27 06:01:23;;;;;;;10.80;9.80;;;18.80;99.90;;;;;;5012754;28;20182;-73
2021/06/27 06:03:49;;;;;;;11.07;10.07;;;18.90;99.90;;;;;;5013520;28;20165;-73
2021/06/27 06:06:14;;;;;;;12.33;11.10;;;18.90;99.90;;;;;;5013565;28;20687;-73
2021/06/27 06:08:42;;;;;;;11.20;9.10;;;19.00;99.90;;;;;;5013181;28;20220;-74
2021/06/27 06:11:09;;;;;;;10.93;10.03;;;19.10;99.90;;;;;;5013119;28;20168;-74
2021/06/27 06:13:36;;;;;;;9.97;9.17;;;19.20;99.90;;;;;;5013740;28;20414;-74
2021/06/27 06:16:03;;;;;;;10.43;9.53;;;19.30;99.90;;;;;;5013268;28;20427;-74
2021/06/27 06:18:29;;;;;;;10.13;9.20;;;19.40;99.90;;;;;;5013049;28;20462;-73
2021/06/27 06:20:54;;;;;;;9.10;8.40;;;19.60;99.90;;;;;;5013000;28;20480;-73
2021/06/27 06:23:20;;;;;;;9.43;8.73;;;19.70;99.90;;;;;;5012895;28;20190;-73
2021/06/27 06:25:45;;;;;;;9.97;9.00;;;19.80;99.90;;;;;;5013264;28;20199;-73
2021/06/27 06:28:11;;;;;;;9.70;8.80;;;19.80;99.90;;;;;;5013235;28;20665;-74
2021/06/27 06:30:36;;;;;;;8.93;8.13;;;19.90;99.90;;;;;;5012729;28;20646;-73
2021/06/27 06:33:02;;;;;;;8.90;8.20;;;19.90;99.90;;;;;;5012882;28;20169;-73
2021/06/27 06:35:28;;;;;;;8.93;8.10;;;20.10;99.90;;;;;;5012230;28;20674;-74
2021/06/27 06:37:53;;;;;;;10.07;9.20;;;20.10;99.90;;;;;;5012381;28;20160;-74
2021/06/27 06:40:19;;;;;;;8.87;8.13;;;20.20;99.90;;;;;;5012649;28;20200;-74
2021/06/27 06:42:45;;;;;;;10.60;9.70;;;20.30;99.90;;;;;;5013036;28;20169;-74
2021/06/27 06:45:10;;;;;;;8.83;8.03;;;20.40;99.90;;;;;;5012420;28;20174;-74
2021/06/27 06:47:36;;;;;;;10.00;8.57;;;20.50;99.90;;;;;;5012772;28;20245;-73
2021/06/27 06:50:03;;;;;;;9.67;8.77;;;20.60;99.90;;;;;;5012576;28;20161;-73
2021/06/27 06:52:28;;;;;;;9.37;8.37;;;20.80;99.90;;;;;;5012319;28;20275;-73
2021/06/27 06:54:54;;;;;;;8.67;7.97;;;20.90;99.90;;;;;;5012531;28;20483;-74
2021/06/27 06:57:19;;;;;;;8.93;7.70;;;21.00;99.90;;;;;;5013007;28;20526;-72
2021/06/27 06:59:45;;;;;;;9.27;8.47;;;21.20;99.90;;;;;;5011979;28;20223;-74
2021/06/27 07:02:10;;;;;;;8.43;7.63;;;21.30;99.90;;;;;;5012338;28;20161;-74
2021/06/27 07:04:36;;;;;;;8.93;8.20;;;21.40;99.90;;;;;;5012202;28;20161;-74
2021/06/27 07:07:02;;;;;;;9.37;8.63;;;21.50;99.90;;;;;;5012295;28;20612;-74
2021/06/27 07:09:27;;;;;;;8.67;7.97;;;21.60;99.90;;;;;;5012350;28;20181;-74
2021/06/27 07:11:53;;;;;;;9.27;7.40;;;21.80;99.90;;;;;;5012667;28;20204;-74
2021/06/27 07:14:18;;;;;;;8.60;7.80;;;21.90;99.90;;;;;;5012471;28;20575;-74
2021/06/27 07:16:44;;;;;;;8.67;7.97;;;21.90;99.90;;;;;;5012356;28;20572;-74
2021/06/27 07:19:10;;;;;;;8.00;7.20;;;22.10;99.90;;;;;;5012292;28;20181;-74
2021/06/27 07:21:37;;;;;;;7.47;6.83;;;22.20;99.90;;;;;;5012159;28;20158;-74
2021/06/27 07:24:02;;;;;;;8.20;7.50;;;22.30;99.90;;;;;;5012768;28;20173;-72
2021/06/27 07:26:28;;;;;;;7.87;7.17;;;22.50;99.90;;;;;;5012519;28;20420;-72
2021/06/27 07:28:53;;;;;;;7.13;6.50;;;22.60;99.90;;;;;;5012284;28;20154;-72
2021/06/27 07:31:19;;;;;;;6.40;5.90;;;22.90;99.90;;;;;;5012102;28;20164;-72
2021/06/27 07:33:45;;;;;;;7.90;7.20;;;23.30;99.90;;;;;;5012002;28;20471;-72
2021/06/27 07:36:10;;;;;;;7.97;7.33;;;23.70;99.90;;;;;;5011856;28;20158;-72
2021/06/27 07:38:36;;;;;;;6.93;6.40;;;24.10;99.90;;;;;;5012215;28;20158;-72
2021/06/27 07:41:02;;;;;;;7.33;6.57;;;24.30;99.90;;;;;;5011987;28;20186;-72
2021/06/27 07:43:27;;;;;;;6.90;6.40;;;24.40;99.90;;;;;;5011944;28;20181;-72
2021/06/27 07:45:53;;;;;;;7.10;6.60;;;24.70;99.90;;;;;;5012127;28;20170;-72
2021/06/27 07:48:19;;;;;;;8.13;7.53;;;25.00;99.90;;;;;;5015745;28;20162;-72
2021/06/27 07:50:45;;;;;;;6.37;5.77;;;25.60;99.90;;;;;;5015545;28;20153;-72
2021/06/27 07:53:11;;;;;;;7.07;6.30;;;26.20;99.70;;;;;;5016040;28;20409;-73
2021/06/27 07:55:37;;;;;;;6.67;6.10;;;26.70;97.10;;;;;;5015846;28;20649;-72
2021/06/27 07:58:03;;;;;;;6.57;5.93;;;27.40;95.70;;;;;;5015439;28;20661;-72
2021/06/27 08:00:30;;;;;;;6.23;5.73;;;28.10;95.00;;;;;;5014870;28;20213;-72
2021/06/27 08:02:57;;;;;;;6.47;5.87;;;28.60;90.50;;;;;;5015375;28;20404;-72
2021/06/27 08:05:22;;;;;;;5.90;5.40;;;29.20;90.00;;;;;;5015207;28;20772;-73
2021/06/27 08:07:48;;;;;;;5.97;5.50;;;29.70;88.20;;;;;;5015401;28;20699;-73
2021/06/27 08:10:14;;;;;;;6.70;5.23;;;30.40;83.10;;;;;;5015319;28;20583;-73
2021/06/27 08:12:41;;;;;;;6.13;5.70;;;30.90;74.30;;;;;;5015265;28;20506;-73
2021/06/27 08:15:08;;;;;;;6.10;5.70;;;31.50;73.80;;;;;;5015349;28;20188;-73
2021/06/27 08:17:34;;;;;;;5.17;4.87;;;32.00;66.30;;;;;;5014855;28;20420;-73
2021/06/27 08:19:59;;;;;;;6.80;6.30;;;32.60;67.10;;;;;;5014938;28;20448;-73
2021/06/27 08:22:25;;;;;;;5.30;4.90;;;33.50;60.70;;;;;;5015383;28;20220;-74
2021/06/27 08:24:50;;;;;;;5.60;5.20;;;34.20;53.80;;;;;;5015113;28;20603;-74
2021/06/27 08:27:16;;;;;;;5.23;4.73;;;34.80;51.50;;;;;;5015453;28;20284;-74
2021/06/27 08:29:41;;;;;;;6.47;4.63;;;35.60;50.40;;;;;;5015124;28;20158;-74
2021/06/27 08:32:08;;;;;;;4.53;4.23;;;36.30;46.60;;;;;;5014914;28;20241;-74
2021/06/27 08:34:33;;;;;;;4.50;4.20;;;36.90;44.90;;;;;;5014982;28;20551;-74
2021/06/27 08:36:59;;;;;;;4.60;4.23;;;37.60;42.50;;;;;;5014942;28;20396;-74
2021/06/27 08:39:24;;;;;;;5.27;4.97;;;37.50;41.60;;;;;;5014802;28;20207;-74
2021/06/27 08:41:50;;;;;;;4.60;4.30;;;37.50;40.20;;;;;;5014605;28;20572;-74
2021/06/27 08:44:16;;;;;;;4.27;3.97;;;37.90;40.90;;;;;;5014710;28;20161;-74
2021/06/27 08:46:43;;;;;;;5.10;4.70;;;38.30;38.80;;;;;;5014570;28;20176;-74
2021/06/27 08:49:10;;;;;;;4.20;3.80;;;38.60;38.30;;;;;;5014615;28;20475;-74
2021/06/27 08:51:37;;;;;;;3.87;3.67;;;38.50;36.90;;;;;;5014510;28;20448;-74
2021/06/27 08:54:03;;;;;;;4.83;4.53;;;38.30;37.50;;;;;;5014555;28;20400;-74
2021/06/27 08:56:29;;;;;;;4.53;4.13;;;38.30;37.40;;;;;;5014707;28;20404;-74
2021/06/27 08:58:55;;;;;;;4.17;3.97;;;38.40;37.00;;;;;;5014108;28;20489;-74
2021/06/27 09:01:21;;;;;;;4.03;3.70;;;38.20;36.80;;;;;;5014204;28;20180;-74
2021/06/27 09:03:48;;;;;;;4.13;3.83;;;38.00;36.70;;;;;;5014455;28;20161;-74
2021/06/27 09:06:36;;;;;;;3.80;3.60;;;37.70;37.90;;;;;;5014406;28;20405;-74
2021/06/27 09:09:12;;;;;;;4.43;4.03;;;37.60;36.00;;;;;;5013566;28;20416;-74
2021/06/27 09:11:40;;;;;;;4.70;4.40;;;36.90;37.10;;;;;;5013956;28;20497;-74
2021/06/27 09:14:27;;;;;;;6.10;3.80;;;36.60;37.80;;;;;;5014263;28;20404;-74
2021/06/27 09:17:22;;;;;;;3.70;3.50;;;36.30;38.60;;;;;;5014060;28;20396;-74
2021/06/27 09:19:58;;;;;;;3.93;3.50;;;36.60;39.70;;;;;;5013595;28;20451;-74
2021/06/27 09:25:12;;;;;;;3.80;3.60;;;37.20;37.50;;;;;;5115992;27;20629;-74
2021/06/27 09:27:38;;;;;;;4.20;3.90;;;36.80;36.80;;;;;;5110207;28;20391;-74
2021/06/27 09:30:23;;;;;;;4.20;3.90;;;36.30;36.90;;;;;;5109747;28;20452;-73
2021/06/27 09:35:49;;;;;;;4.43;4.13;;;35.70;37.60;;;;;;5069573;28;20508;-73
2021/06/27 09:40:58;;;;;;;4.07;3.80;;;34.40;42.10;;;;;;5065283;28;21027;-74
2021/06/27 09:43:25;;;;;;;12.37;11.37;;;34.20;41.50;;;;;;5069504;28;20398;-74
2021/06/27 09:45:56;;;;;;;7.80;5.47;;;34.30;41.30;;;;;;5069342;28;20802;-74
2021/06/27 09:48:21;;;;;;;4.60;4.20;;;34.10;43.80;;;;;;5069727;28;20390;-74
2021/06/27 09:50:47;;;;;;;4.57;4.27;;;33.90;42.50;;;;;;5069583;28;20499;-74
2021/06/27 09:53:35;;;;;;;4.20;3.90;;;33.80;42.70;;;;;;5069129;28;20637;-74
2021/06/27 09:56:02;;;;;;;4.23;3.93;;;33.90;44.50;;;;;;5068129;28;20152;-74
2021/06/27 09:58:29;;;;;;;4.33;3.93;;;33.80;44.50;;;;;;5068117;28;20434;-74
2021/06/27 10:00:57;;;;;;;7.07;5.33;;;33.10;43.20;;;;;;5055310;28;20900;-74
2021/06/27 10:03:26;;;;;;;5.30;4.87;;;32.90;44.00;;;;;;5049458;28;20402;-74
2021/06/27 10:06:03;;;;;;;5.03;4.73;;;32.60;44.40;;;;;;5049004;28;20752;-73
2021/06/27 10:08:30;;;;;;;4.90;4.50;;;32.40;45.00;;;;;;5048914;28;20477;-73
2021/06/27 10:11:07;;;;;;;5.90;5.40;;;32.10;45.90;;;;;;5048860;28;20395;-74
2021/06/27 10:13:33;;;;;;;4.63;4.30;;;31.90;46.60;;;;;;5048911;28;20809;-74
2021/06/27 10:16:00;;;;;;;4.73;4.33;;;32.00;47.90;;;;;;5050329;28;20425;-73
2021/06/27 10:18:26;;;;;;;5.30;4.60;;;32.00;46.70;;;;;;5049102;28;20239;-74
2021/06/27 10:20:53;;;;;;;5.20;4.80;;;32.00;46.60;;;;;;5049076;28;20399;-74
2021/06/27 10:23:19;;;;;;;4.87;4.57;;;32.00;46.70;;;;;;5048544;28;20990;-74
2021/06/27 10:25:45;;;;;;;6.13;5.60;;;32.00;47.00;;;;;;5049099;28;20860;-73
2021/06/27 10:28:13;;;;;;;5.27;4.87;;;31.80;46.20;;;;;;5048585;28;20402;-73
2021/06/27 10:30:40;;;;;;;5.20;4.70;;;31.60;47.20;;;;;;5049159;28;20398;-74
2021/06/27 10:33:06;;;;;;;5.43;5.03;;;31.40;47.90;;;;;;5049207;28;20667;-74
2021/06/27 10:35:32;;;;;;;6.93;4.57;;;31.50;47.40;;;;;;5048467;28;20407;-74
2021/06/27 10:38:03;;;;;;;4.23;3.93;;;31.40;47.80;;;;;;5048328;28;20172;-73
2021/06/27 10:40:58;;;;;;;5.03;4.70;;;31.30;46.00;;;;;;5048237;28;20214;-73
2021/06/27 10:43:25;;;;;;;5.17;4.77;;;31.10;46.60;;;;;;5048320;28;20392;-73
2021/06/27 10:51:12;;;;;;;4.83;4.53;;;31.00;48.40;;;;;;5069453;28;20520;-74
2021/06/27 10:54:14;;;;;;;4.60;4.30;;;30.70;47.80;;;;;;5069443;28;20379;-74
2021/06/27 11:02:36;;;;;;;4.87;4.47;;;30.10;49.40;;;;;;5089805;28;20532;-77
2021/06/27 11:08:06;;;;;;;4.60;4.30;;;29.60;50.10;;;;;;5069397;28;20630;-76
2021/06/27 11:10:34;;;;;;;4.90;4.60;;;29.40;50.50;;;;;;5069356;28;20813;-76
2021/06/27 11:21:23;;;;;;;5.03;4.63;;;28.80;50.50;;;;;;5069351;28;20500;-75
2021/06/27 11:26:52;;;;;;;4.80;4.50;;;28.50;52.00;;;;;;5071676;28;20504;-74
2021/06/27 11:34:57;;;;;;;4.70;4.40;;;28.40;51.80;;;;;;5069286;28;21119;-76
2021/06/27 11:40:05;;;;;;;4.60;4.30;;;28.30;52.30;;;;;;5123930;27;20539;-74
2021/06/27 11:50:29;;;;;;;12.73;7.37;;;28.20;50.40;;;;;;5069486;28;20538;-76
2021/06/27 11:52:57;;;;;;;4.50;4.20;;;28.30;51.10;;;;;;5069540;28;20386;-76
2021/06/27 11:58:04;;;;;;;4.23;3.83;;;28.20;50.20;;;;;;5054970;28;20506;-74
2021/06/27 12:03:23;;;;;;;4.43;4.10;;;28.10;51.50;;;;;;5069369;28;20798;-75
2021/06/27 12:05:54;;;;;;;4.10;3.80;;;28.00;50.10;;;;;;5069488;28;20857;-75
2021/06/27 12:08:21;;;;;;;4.30;4.00;;;28.10;51.50;;;;;;5069960;28;20754;-75
2021/06/27 12:10:50;;;;;;;4.67;4.27;;;28.10;51.90;;;;;;5070035;28;20390;-74
2021/06/27 12:13:16;;;;;;;4.00;3.70;;;28.00;52.40;;;;;;5069185;28;20390;-75
2021/06/27 12:15:45;;;;;;;8.10;7.40;;;28.00;54.20;;;;;;5049874;28;20453;-75
2021/06/27 12:18:13;;;;;;;5.20;4.70;;;28.00;52.40;;;;;;5049178;28;20156;-74
2021/06/27 12:20:46;;;;;;;3.83;3.60;;;28.00;52.60;;;;;;5049045;28;20865;-74
2021/06/27 12:23:14;;;;;;;4.57;4.10;;;28.00;52.60;;;;;;5051613;28;20762;-74
2021/06/27 12:25:44;;;;;;;4.07;3.67;;;28.00;52.20;;;;;;5049268;28;20513;-74
2021/06/27 12:28:13;;;;;;;3.97;3.67;;;27.90;50.00;;;;;;5049181;28;20561;-74
2021/06/27 12:30:56;;;;;;;4.40;4.10;;;27.80;51.20;;;;;;5049384;28;20421;-74
2021/06/27 12:36:01;;;;;;;4.17;3.77;;;27.80;52.10;;;;;;5069629;28;20508;-74
2021/06/27 12:38:28;;;;;;;4.10;3.80;;;27.80;50.90;;;;;;5069674;28;20449;-74
2021/06/27 12:40:58;;;;;;;4.47;4.10;;;27.80;51.00;;;;;;5070149;28;20389;-74
2021/06/27 12:46:19;;;;;;;4.23;3.93;;;27.70;50.00;;;;;;5069221;28;21109;-74
2021/06/27 12:48:49;;;;;;;4.87;4.57;;;27.60;50.90;;;;;;5055967;28;20489;-74
2021/06/27 12:59:23;;;;;;;4.67;4.27;;;27.40;51.90;;;;;;5068961;28;20525;-74
2021/06/27 13:04:36;;;;;;;4.93;4.53;;;27.10;52.30;;;;;;5107558;27;20936;-74
2021/06/27 13:10:00;;;;;;;5.00;4.60;;;27.20;55.60;;;;;;5069761;28;20516;-76
2021/06/27 13:12:26;;;;;;;5.33;4.93;;;27.10;56.10;;;;;;5069670;28;20405;-76
2021/06/27 13:15:07;;;;;;;4.47;4.10;;;27.10;54.40;;;;;;5069421;28;20390;-78
2021/06/27 13:17:42;;;;;;;4.50;4.20;;;27.20;53.60;;;;;;5069461;28;20214;-75
2021/06/27 13:20:12;;;;;;;4.33;4.03;;;27.30;53.90;;;;;;5069393;28;20388;-75
2021/06/27 13:30:59;;;;;;;4.93;4.53;;;27.80;53.60;;;;;;5069548;28;20524;-75
2021/06/27 13:33:27;;;;;;;4.93;4.43;;;27.80;53.60;;;;;;5069347;28;20450;-75
2021/06/27 13:36:14;;;;;;;4.63;4.33;;;27.80;52.70;;;;;;5069438;28;20402;-75
2021/06/27 13:38:45;;;;;;;4.23;3.93;;;27.80;53.40;;;;;;5065797;28;20414;-75
2021/06/27 13:41:15;;;;;;;3.90;3.60;;;27.80;52.50;;;;;;5052597;28;20433;-75
2021/06/27 13:43:40;;;;;;;4.27;3.87;;;27.80;52.60;;;;;;5069321;28;20418;-75
2021/06/27 13:46:06;;;;;;;4.53;4.23;;;27.90;52.90;;;;;;5069137;28;20997;-75
2021/06/27 13:48:32;;;;;;;5.03;4.20;;;28.10;53.10;;;;;;5069116;28;20187;-75
2021/06/27 13:50:57;;;;;;;4.50;4.10;;;28.10;53.20;;;;;;5049376;28;20156;-75
2021/06/27 13:53:23;;;;;;;4.53;4.23;;;28.20;57.00;;;;;;5049251;28;20171;-75
2021/06/27 13:55:49;;;;;;;4.43;4.10;;;28.20;52.60;;;;;;5048294;28;20711;-75
2021/06/27 13:58:15;;;;;;;4.90;4.33;;;28.30;54.20;;;;;;5049341;28;20160;-75
2021/06/27 14:00:40;;;;;;;4.50;4.20;;;28.30;53.60;;;;;;5037248;28;20537;-75